sensor_id;sensor_type;location;lat;lon;timestamp;pressure;altitude;pressure_sealevel;temperature;humidity
70488;BME280;57976;48.174;16.370;2023-03-14T00:01:17;97579.86;;;10.40;62.13
70488;BME280;57976;48.174;16.370;2023-03-14T00:03:22;97575.55;;;10.37;62.88
70488;BME280;57976;48.174;16.370;2023-03-14T00:05:27;97574.16;;;10.37;62.71
70488;BME280;57976;48.174;16.370;2023-03-14T00:07:32;97572.52;;;10.33;62.78
70488;BME280;57976;48.174;16.370;2023-03-14T00:09:36;97568.04;;;10.32;62.63
70488;BME280;57976;48.174;16.370;2023-03-14T00:11:41;97554.84;;;10.30;62.75
70488;BME280;57976;48.174;16.370;2023-03-14T00:13:48;97550.89;;;10.25;62.99
70488;BME280;57976;48.174;16.370;2023-03-14T00:15:52;97549.60;;;10.22;63.01
70488;BME280;57976;48.174;16.370;2023-03-14T00:17:57;97554.11;;;10.21;63.35
70488;BME280;57976;48.174;16.370;2023-03-14T00:20:02;97554.66;;;10.18;63.34
70488;BME280;57976;48.174;16.370;2023-03-14T00:22:07;97548.36;;;10.17;63.16
70488;BME280;57976;48.174;16.370;2023-03-14T00:24:12;97545.52;;;10.16;63.53
70488;BME280;57976;48.174;16.370;2023-03-14T00:26:18;97545.77;;;10.14;63.90
70488;BME280;57976;48.174;16.370;2023-03-14T00:28:23;97543.84;;;10.14;63.77
70488;BME280;57976;48.174;16.370;2023-03-14T00:30:28;97539.25;;;10.14;63.87
70488;BME280;57976;48.174;16.370;2023-03-14T00:32:33;97538.88;;;10.13;64.36
70488;BME280;57976;48.174;16.370;2023-03-14T00:34:38;97534.81;;;10.12;64.40
70488;BME280;57976;48.174;16.370;2023-03-14T00:36:44;97534.63;;;10.13;64.18
70488;BME280;57976;48.174;16.370;2023-03-14T00:38:51;97525.52;;;10.11;64.12
70488;BME280;57976;48.174;16.370;2023-03-14T00:40:56;97528.80;;;10.13;64.11
70488;BME280;57976;48.174;16.370;2023-03-14T00:43:00;97521.69;;;10.13;63.82
70488;BME280;57976;48.174;16.370;2023-03-14T00:45:06;97519.25;;;10.14;64.14
70488;BME280;57976;48.174;16.370;2023-03-14T00:47:11;97525.14;;;10.16;64.36
70488;BME280;57976;48.174;16.370;2023-03-14T00:49:16;97526.34;;;10.18;64.23
70488;BME280;57976;48.174;16.370;2023-03-14T00:51:21;97519.13;;;10.19;64.15
70488;BME280;57976;48.174;16.370;2023-03-14T00:53:25;97517.97;;;10.21;64.05
70488;BME280;57976;48.174;16.370;2023-03-14T00:55:30;97514.34;;;10.20;64.20
70488;BME280;57976;48.174;16.370;2023-03-14T00:57:35;97505.48;;;10.18;64.06
70488;BME280;57976;48.174;16.370;2023-03-14T00:59:39;97504.95;;;10.19;63.95
70488;BME280;57976;48.174;16.370;2023-03-14T01:01:44;97501.55;;;10.21;63.93
70488;BME280;57976;48.174;16.370;2023-03-14T01:03:53;97490.54;;;10.25;64.04
70488;BME280;57976;48.174;16.370;2023-03-14T01:06:08;97488.45;;;10.25;64.18
70488;BME280;57976;48.174;16.370;2023-03-14T01:08:13;97488.88;;;10.25;64.32
70488;BME280;57976;48.174;16.370;2023-03-14T01:10:17;97485.77;;;10.24;64.39
70488;BME280;57976;48.174;16.370;2023-03-14T01:12:22;97475.96;;;10.23;64.04
70488;BME280;57976;48.174;16.370;2023-03-14T01:14:27;97471.27;;;10.22;64.33
70488;BME280;57976;48.174;16.370;2023-03-14T01:16:33;97460.16;;;10.24;63.99
70488;BME280;57976;48.174;16.370;2023-03-14T01:18:38;97464.68;;;10.27;64.44
70488;BME280;57976;48.174;16.370;2023-03-14T01:20:43;97464.48;;;10.31;64.37
70488;BME280;57976;48.174;16.370;2023-03-14T01:22:48;97462.98;;;10.34;64.55
70488;BME280;57976;48.174;16.370;2023-03-14T01:24:53;97457.56;;;10.35;63.55
70488;BME280;57976;48.174;16.370;2023-03-14T01:26:58;97456.77;;;10.31;63.82
70488;BME280;57976;48.174;16.370;2023-03-14T01:29:03;97455.82;;;10.29;64.01
70488;BME280;57976;48.174;16.370;2023-03-14T01:31:11;97450.70;;;10.28;64.10
70488;BME280;57976;48.174;16.370;2023-03-14T01:33:16;97445.13;;;10.29;63.88
70488;BME280;57976;48.174;16.370;2023-03-14T01:35:21;97444.09;;;10.27;64.06
70488;BME280;57976;48.174;16.370;2023-03-14T01:37:26;97443.52;;;10.24;64.12
70488;BME280;57976;48.174;16.370;2023-03-14T01:39:30;97443.13;;;10.23;64.18
70488;BME280;57976;48.174;16.370;2023-03-14T01:41:39;97445.47;;;10.19;64.19
70488;BME280;57976;48.174;16.370;2023-03-14T01:43:44;97443.47;;;10.21;64.30
70488;BME280;57976;48.174;16.370;2023-03-14T01:46:19;97444.63;;;10.23;64.47
70488;BME280;57976;48.174;16.370;2023-03-14T01:48:26;97443.13;;;10.24;63.97
70488;BME280;57976;48.174;16.370;2023-03-14T01:50:33;97442.60;;;10.19;64.00
70488;BME280;57976;48.174;16.370;2023-03-14T01:52:41;97444.52;;;10.17;64.35
70488;BME280;57976;48.174;16.370;2023-03-14T01:54:52;97445.86;;;10.17;64.18
70488;BME280;57976;48.174;16.370;2023-03-14T01:57:04;97447.55;;;10.16;64.91
70488;BME280;57976;48.174;16.370;2023-03-14T01:59:12;97442.60;;;10.16;64.91
70488;BME280;57976;48.174;16.370;2023-03-14T02:01:18;97439.52;;;10.15;65.03
70488;BME280;57976;48.174;16.370;2023-03-14T02:03:25;97446.84;;;10.15;64.68
70488;BME280;57976;48.174;16.370;2023-03-14T02:05:34;97446.95;;;10.12;64.86
70488;BME280;57976;48.174;16.370;2023-03-14T02:08:00;97453.25;;;10.11;65.15
70488;BME280;57976;48.174;16.370;2023-03-14T02:10:19;97461.61;;;10.10;65.23
70488;BME280;57976;48.174;16.370;2023-03-14T02:12:25;97456.06;;;10.10;65.23
70488;BME280;57976;48.174;16.370;2023-03-14T02:15:10;97451.77;;;10.09;64.81
70488;BME280;57976;48.174;16.370;2023-03-14T02:17:36;97449.98;;;10.03;65.20
70488;BME280;57976;48.174;16.370;2023-03-14T02:20:17;97450.13;;;10.01;65.28
70488;BME280;57976;48.174;16.370;2023-03-14T02:22:31;97450.66;;;10.02;65.37
70488;BME280;57976;48.174;16.370;2023-03-14T02:24:45;97452.29;;;10.04;65.80
70488;BME280;57976;48.174;16.370;2023-03-14T02:27:13;97453.35;;;10.08;65.57
70488;BME280;57976;48.174;16.370;2023-03-14T02:29:23;97449.53;;;10.08;65.41
70488;BME280;57976;48.174;16.370;2023-03-14T02:31:28;97451.86;;;10.07;65.75
70488;BME280;57976;48.174;16.370;2023-03-14T02:33:33;97453.35;;;10.08;65.58
70488;BME280;57976;48.174;16.370;2023-03-14T02:35:43;97458.27;;;10.06;65.87
70488;BME280;57976;48.174;16.370;2023-03-14T02:37:51;97467.61;;;10.02;65.90
70488;BME280;57976;48.174;16.370;2023-03-14T02:39:57;97476.09;;;9.95;65.83
70488;BME280;57976;48.174;16.370;2023-03-14T02:42:02;97486.64;;;9.89;66.45
70488;BME280;57976;48.174;16.370;2023-03-14T02:44:07;97491.74;;;9.84;66.18
70488;BME280;57976;48.174;16.370;2023-03-14T02:46:13;97488.59;;;9.79;66.28
70488;BME280;57976;48.174;16.370;2023-03-14T02:48:21;97492.08;;;9.74;66.35
70488;BME280;57976;48.174;16.370;2023-03-14T02:50:29;97497.47;;;9.70;66.37
70488;BME280;57976;48.174;16.370;2023-03-14T02:52:35;97497.13;;;9.66;66.71
70488;BME280;57976;48.174;16.370;2023-03-14T02:54:39;97504.70;;;9.63;66.80
70488;BME280;57976;48.174;16.370;2023-03-14T02:56:44;97516.04;;;9.61;67.04
70488;BME280;57976;48.174;16.370;2023-03-14T02:58:49;97511.80;;;9.56;67.15
70488;BME280;57976;48.174;16.370;2023-03-14T03:01:23;97506.91;;;9.53;67.10
70488;BME280;57976;48.174;16.370;2023-03-14T03:03:29;97518.08;;;9.50;67.27
70488;BME280;57976;48.174;16.370;2023-03-14T03:05:33;97542.66;;;9.52;67.03
70488;BME280;57976;48.174;16.370;2023-03-14T03:07:39;97541.03;;;9.50;67.20
70488;BME280;57976;48.174;16.370;2023-03-14T03:09:43;97542.38;;;9.48;66.97
70488;BME280;57976;48.174;16.370;2023-03-14T03:11:48;97564.23;;;9.45;67.08
70488;BME280;57976;48.174;16.370;2023-03-14T03:13:56;97558.52;;;9.39;67.13
70488;BME280;57976;48.174;16.370;2023-03-14T03:16:01;97559.05;;;9.33;67.41
70488;BME280;57976;48.174;16.370;2023-03-14T03:18:06;97556.04;;;9.29;67.57
70488;BME280;57976;48.174;16.370;2023-03-14T03:20:11;97572.41;;;9.26;67.84
70488;BME280;57976;48.174;16.370;2023-03-14T03:22:16;97577.40;;;9.21;68.11
70488;BME280;57976;48.174;16.370;2023-03-14T03:24:21;97576.80;;;9.15;68.15
70488;BME280;57976;48.174;16.370;2023-03-14T03:26:25;97588.42;;;9.08;68.72
70488;BME280;57976;48.174;16.370;2023-03-14T03:28:30;97585.80;;;8.99;68.78
70488;BME280;57976;48.174;16.370;2023-03-14T03:30:38;97587.75;;;8.90;69.20
70488;BME280;57976;48.174;16.370;2023-03-14T03:32:43;97601.52;;;8.82;69.49
70488;BME280;57976;48.174;16.370;2023-03-14T03:34:48;97603.40;;;8.76;69.73
70488;BME280;57976;48.174;16.370;2023-03-14T03:36:55;97605.23;;;8.71;69.90
70488;BME280;57976;48.174;16.370;2023-03-14T03:39:04;97607.14;;;8.67;69.92
70488;BME280;57976;48.174;16.370;2023-03-14T03:41:09;97601.13;;;8.67;70.18
70488;BME280;57976;48.174;16.370;2023-03-14T03:43:13;97599.61;;;8.68;70.53
70488;BME280;57976;48.174;16.370;2023-03-14T03:45:20;97587.87;;;8.70;70.39
70488;BME280;57976;48.174;16.370;2023-03-14T03:47:29;97589.87;;;8.72;70.10
70488;BME280;57976;48.174;16.370;2023-03-14T03:49:34;97588.86;;;8.75;70.04
70488;BME280;57976;48.174;16.370;2023-03-14T03:51:40;97592.50;;;8.77;69.81
70488;BME280;57976;48.174;16.370;2023-03-14T03:53:45;97592.19;;;8.83;69.57
70488;BME280;57976;48.174;16.370;2023-03-14T03:55:51;97590.77;;;8.88;69.16
70488;BME280;57976;48.174;16.370;2023-03-14T03:57:56;97589.95;;;8.92;69.07
70488;BME280;57976;48.174;16.370;2023-03-14T04:00:01;97593.09;;;8.95;68.75
70488;BME280;57976;48.174;16.370;2023-03-14T04:02:17;97586.00;;;8.98;68.67
70488;BME280;57976;48.174;16.370;2023-03-14T04:04:22;97584.91;;;8.99;68.16
70488;BME280;57976;48.174;16.370;2023-03-14T04:06:27;97581.04;;;9.02;67.89
70488;BME280;57976;48.174;16.370;2023-03-14T04:08:34;97571.20;;;9.04;67.83
70488;BME280;57976;48.174;16.370;2023-03-14T04:10:40;97567.96;;;9.09;67.61
70488;BME280;57976;48.174;16.370;2023-03-14T04:12:53;97567.39;;;9.12;67.25
70488;BME280;57976;48.174;16.370;2023-03-14T04:15:00;97563.41;;;9.15;66.87
70488;BME280;57976;48.174;16.370;2023-03-14T04:17:07;97564.16;;;9.16;67.16
70488;BME280;57976;48.174;16.370;2023-03-14T04:19:11;97569.58;;;9.18;66.89
70488;BME280;57976;48.174;16.370;2023-03-14T04:21:17;97574.47;;;9.19;66.72
70488;BME280;57976;48.174;16.370;2023-03-14T04:23:25;97576.95;;;9.17;66.69
70488;BME280;57976;48.174;16.370;2023-03-14T04:25:31;97586.65;;;9.17;66.42
70488;BME280;57976;48.174;16.370;2023-03-14T04:27:40;97587.39;;;9.16;66.25
70488;BME280;57976;48.174;16.370;2023-03-14T04:29:53;97586.66;;;9.17;66.56
70488;BME280;57976;48.174;16.370;2023-03-14T04:32:09;97594.58;;;9.19;66.22
70488;BME280;57976;48.174;16.370;2023-03-14T04:34:15;97597.79;;;9.20;66.16
70488;BME280;57976;48.174;16.370;2023-03-14T04:36:25;97593.69;;;9.23;66.28
70488;BME280;57976;48.174;16.370;2023-03-14T04:38:32;97596.33;;;9.22;65.91
70488;BME280;57976;48.174;16.370;2023-03-14T04:40:39;97598.85;;;9.20;65.76
70488;BME280;57976;48.174;16.370;2023-03-14T04:42:44;97607.00;;;9.21;65.98
70488;BME280;57976;48.174;16.370;2023-03-14T04:44:49;97617.28;;;9.25;65.98
70488;BME280;57976;48.174;16.370;2023-03-14T04:46:56;97607.90;;;9.23;65.88
70488;BME280;57976;48.174;16.370;2023-03-14T04:49:02;97591.43;;;9.23;65.62
70488;BME280;57976;48.174;16.370;2023-03-14T04:51:07;97592.29;;;9.27;65.73
70488;BME280;57976;48.174;16.370;2023-03-14T04:53:13;97586.80;;;9.29;65.58
70488;BME280;57976;48.174;16.370;2023-03-14T04:55:19;97582.09;;;9.32;65.82
70488;BME280;57976;48.174;16.370;2023-03-14T04:57:27;97582.58;;;9.38;65.72
70488;BME280;57976;48.174;16.370;2023-03-14T04:59:35;97592.83;;;9.46;65.79
70488;BME280;57976;48.174;16.370;2023-03-14T05:01:50;97597.55;;;9.50;65.39
70488;BME280;57976;48.174;16.370;2023-03-14T05:04:04;97609.33;;;9.52;65.33
70488;BME280;57976;48.174;16.370;2023-03-14T05:06:27;97604.30;;;9.55;65.29
70488;BME280;57976;48.174;16.370;2023-03-14T05:09:01;97591.79;;;9.63;65.55
70488;BME280;57976;48.174;16.370;2023-03-14T05:11:12;97589.57;;;9.70;65.84
70488;BME280;57976;48.174;16.370;2023-03-14T05:13:28;97584.94;;;9.78;65.28
70488;BME280;57976;48.174;16.370;2023-03-14T05:15:49;97600.05;;;9.84;65.14
70488;BME280;57976;48.174;16.370;2023-03-14T05:18:05;97611.74;;;9.92;65.06
70488;BME280;57976;48.174;16.370;2023-03-14T05:20:28;97613.14;;;10.01;64.91
70488;BME280;57976;48.174;16.370;2023-03-14T05:22:55;97618.14;;;10.10;64.89
70488;BME280;57976;48.174;16.370;2023-03-14T05:25:29;97619.98;;;10.19;64.43
70488;BME280;57976;48.174;16.370;2023-03-14T05:28:02;97627.02;;;10.30;64.33
70488;BME280;57976;48.174;16.370;2023-03-14T05:30:22;97633.83;;;10.40;63.98
70488;BME280;57976;48.174;16.370;2023-03-14T05:32:43;97644.45;;;10.48;64.12
70488;BME280;57976;48.174;16.370;2023-03-14T05:35:18;97648.64;;;10.49;63.49
70488;BME280;57976;48.174;16.370;2023-03-14T05:37:41;97660.31;;;10.44;63.12
70488;BME280;57976;48.174;16.370;2023-03-14T05:39:54;97661.23;;;10.36;63.35
70488;BME280;57976;48.174;16.370;2023-03-14T05:42:12;97651.23;;;10.29;63.40
70488;BME280;57976;48.174;16.370;2023-03-14T05:44:31;97652.48;;;10.25;63.51
70488;BME280;57976;48.174;16.370;2023-03-14T05:46:51;97661.33;;;10.16;63.30
70488;BME280;57976;48.174;16.370;2023-03-14T05:49:22;97666.05;;;10.01;63.25
70488;BME280;57976;48.174;16.370;2023-03-14T05:51:45;97670.91;;;9.90;63.49
70488;BME280;57976;48.174;16.370;2023-03-14T05:54:16;97660.73;;;9.86;63.32
70488;BME280;57976;48.174;16.370;2023-03-14T05:56:43;97672.20;;;9.89;63.33
70488;BME280;57976;48.174;16.370;2023-03-14T05:59:01;97676.80;;;9.90;63.03
70488;BME280;57976;48.174;16.370;2023-03-14T06:01:16;97686.38;;;9.92;62.88
70488;BME280;57976;48.174;16.370;2023-03-14T06:03:35;97683.73;;;9.95;62.87
70488;BME280;57976;48.174;16.370;2023-03-14T06:05:40;97683.52;;;9.99;62.72
70488;BME280;57976;48.174;16.370;2023-03-14T06:07:45;97694.30;;;10.03;62.58
70488;BME280;57976;48.174;16.370;2023-03-14T06:09:50;97695.39;;;10.05;62.47
70488;BME280;57976;48.174;16.370;2023-03-14T06:11:55;97683.05;;;10.04;62.37
70488;BME280;57976;48.174;16.370;2023-03-14T06:14:00;97689.46;;;10.06;62.19
70488;BME280;57976;48.174;16.370;2023-03-14T06:16:06;97691.69;;;10.08;62.21
70488;BME280;57976;48.174;16.370;2023-03-14T06:18:11;97693.20;;;10.04;62.17
70488;BME280;57976;48.174;16.370;2023-03-14T06:20:17;97688.25;;;10.01;62.30
70488;BME280;57976;48.174;16.370;2023-03-14T06:22:22;97694.22;;;9.99;62.41
70488;BME280;57976;48.174;16.370;2023-03-14T06:24:26;97691.11;;;9.95;62.72
70488;BME280;57976;48.174;16.370;2023-03-14T06:26:34;97690.75;;;9.90;62.67
70488;BME280;57976;48.174;16.370;2023-03-14T06:28:38;97683.21;;;9.83;62.83
70488;BME280;57976;48.174;16.370;2023-03-14T06:30:43;97679.71;;;9.78;62.98
70488;BME280;57976;48.174;16.370;2023-03-14T06:32:48;97686.81;;;9.75;63.19
70488;BME280;57976;48.174;16.370;2023-03-14T06:34:54;97690.15;;;9.74;63.04
70488;BME280;57976;48.174;16.370;2023-03-14T06:36:58;97690.29;;;9.73;63.30
70488;BME280;57976;48.174;16.370;2023-03-14T06:39:04;97692.70;;;9.73;63.23
70488;BME280;57976;48.174;16.370;2023-03-14T06:41:11;97683.52;;;9.74;63.56
70488;BME280;57976;48.174;16.370;2023-03-14T06:43:18;97684.00;;;9.77;63.09
70488;BME280;57976;48.174;16.370;2023-03-14T06:45:23;97678.48;;;9.80;63.55
70488;BME280;57976;48.174;16.370;2023-03-14T06:47:28;97664.98;;;9.86;63.18
70488;BME280;57976;48.174;16.370;2023-03-14T06:49:33;97653.70;;;9.97;63.39
70488;BME280;57976;48.174;16.370;2023-03-14T06:51:38;97654.13;;;10.11;63.05
70488;BME280;57976;48.174;16.370;2023-03-14T06:53:43;97668.38;;;10.24;62.80
70488;BME280;57976;48.174;16.370;2023-03-14T06:55:50;97674.88;;;10.33;62.28
70488;BME280;57976;48.174;16.370;2023-03-14T06:57:55;97666.38;;;10.40;62.22
70488;BME280;57976;48.174;16.370;2023-03-14T07:00:01;97666.93;;;10.47;62.20
70488;BME280;57976;48.174;16.370;2023-03-14T07:02:08;97672.95;;;10.57;62.18
70488;BME280;57976;48.174;16.370;2023-03-14T07:04:16;97669.06;;;10.64;61.59
70488;BME280;57976;48.174;16.370;2023-03-14T07:06:23;97675.99;;;10.73;61.57
70488;BME280;57976;48.174;16.370;2023-03-14T07:08:28;97666.89;;;10.84;61.31
70488;BME280;57976;48.174;16.370;2023-03-14T07:10:34;97663.94;;;11.00;61.16
70488;BME280;57976;48.174;16.370;2023-03-14T07:12:39;97678.98;;;11.16;60.86
70488;BME280;57976;48.174;16.370;2023-03-14T07:14:44;97686.84;;;11.25;60.19
70488;BME280;57976;48.174;16.370;2023-03-14T07:16:49;97689.04;;;11.26;59.94
70488;BME280;57976;48.174;16.370;2023-03-14T07:18:54;97698.27;;;11.23;59.71
70488;BME280;57976;48.174;16.370;2023-03-14T07:20:58;97704.56;;;11.23;59.47
70488;BME280;57976;48.174;16.370;2023-03-14T07:23:03;97704.34;;;11.22;59.54
70488;BME280;57976;48.174;16.370;2023-03-14T07:25:13;97698.38;;;11.22;59.15
70488;BME280;57976;48.174;16.370;2023-03-14T07:27:18;97696.73;;;11.24;59.37
70488;BME280;57976;48.174;16.370;2023-03-14T07:29:23;97700.16;;;11.24;59.40
70488;BME280;57976;48.174;16.370;2023-03-14T07:31:28;97700.06;;;11.25;59.24
70488;BME280;57976;48.174;16.370;2023-03-14T07:33:39;97702.34;;;11.27;59.92
70488;BME280;57976;48.174;16.370;2023-03-14T07:35:44;97698.58;;;11.30;60.24
70488;BME280;57976;48.174;16.370;2023-03-14T07:37:49;97696.03;;;11.33;60.60
70488;BME280;57976;48.174;16.370;2023-03-14T07:39:55;97700.47;;;11.42;61.37
70488;BME280;57976;48.174;16.370;2023-03-14T07:42:03;97700.07;;;11.52;61.37
70488;BME280;57976;48.174;16.370;2023-03-14T07:44:35;97705.77;;;11.66;61.39
70488;BME280;57976;48.174;16.370;2023-03-14T07:46:40;97697.54;;;11.76;61.47
70488;BME280;57976;48.174;16.370;2023-03-14T07:48:46;97693.55;;;11.86;61.34
70488;BME280;57976;48.174;16.370;2023-03-14T07:50:52;97690.95;;;11.92;61.02
70488;BME280;57976;48.174;16.370;2023-03-14T07:52:58;97696.39;;;11.96;60.56
70488;BME280;57976;48.174;16.370;2023-03-14T07:55:04;97686.88;;;11.99;60.25
70488;BME280;57976;48.174;16.370;2023-03-14T07:57:08;97690.41;;;12.00;60.29
70488;BME280;57976;48.174;16.370;2023-03-14T07:59:13;97693.79;;;12.01;60.17
70488;BME280;57976;48.174;16.370;2023-03-14T08:01:19;97687.45;;;12.02;60.14
70488;BME280;57976;48.174;16.370;2023-03-14T08:03:24;97684.59;;;12.04;60.54
70488;BME280;57976;48.174;16.370;2023-03-14T08:05:29;97689.73;;;12.07;60.77
70488;BME280;57976;48.174;16.370;2023-03-14T08:07:33;97686.45;;;12.10;61.26
70488;BME280;57976;48.174;16.370;2023-03-14T08:09:38;97677.88;;;12.16;61.91
70488;BME280;57976;48.174;16.370;2023-03-14T08:11:43;97675.11;;;12.27;62.46
70488;BME280;57976;48.174;16.370;2023-03-14T08:13:48;97668.02;;;12.38;62.65
70488;BME280;57976;48.174;16.370;2023-03-14T08:15:52;97664.54;;;12.50;62.54
70488;BME280;57976;48.174;16.370;2023-03-14T08:17:57;97672.04;;;12.58;61.60
70488;BME280;57976;48.174;16.370;2023-03-14T08:20:02;97665.98;;;12.56;61.21
70488;BME280;57976;48.174;16.370;2023-03-14T08:22:07;97662.07;;;12.54;61.35
70488;BME280;57976;48.174;16.370;2023-03-14T08:24:12;97668.13;;;12.56;61.79
70488;BME280;57976;48.174;16.370;2023-03-14T08:26:16;97668.82;;;12.63;62.56
70488;BME280;57976;48.174;16.370;2023-03-14T08:28:21;97668.25;;;12.72;62.04
70488;BME280;57976;48.174;16.370;2023-03-14T08:30:26;97656.30;;;12.74;61.35
70488;BME280;57976;48.174;16.370;2023-03-14T08:32:31;97669.36;;;12.76;61.31
70488;BME280;57976;48.174;16.370;2023-03-14T08:34:35;97677.47;;;12.76;61.20
70488;BME280;57976;48.174;16.370;2023-03-14T08:36:40;97674.15;;;12.73;61.31
70488;BME280;57976;48.174;16.370;2023-03-14T08:38:45;97677.14;;;12.75;61.21
70488;BME280;57976;48.174;16.370;2023-03-14T08:40:50;97674.55;;;12.77;61.19
70488;BME280;57976;48.174;16.370;2023-03-14T08:42:59;97675.85;;;12.81;61.02
70488;BME280;57976;48.174;16.370;2023-03-14T08:45:04;97674.23;;;12.85;60.90
70488;BME280;57976;48.174;16.370;2023-03-14T08:47:10;97671.06;;;12.89;61.00
70488;BME280;57976;48.174;16.370;2023-03-14T08:49:14;97670.31;;;12.95;61.35
70488;BME280;57976;48.174;16.370;2023-03-14T08:51:19;97661.59;;;13.02;61.18
70488;BME280;57976;48.174;16.370;2023-03-14T08:53:24;97658.35;;;13.08;61.04
70488;BME280;57976;48.174;16.370;2023-03-14T08:55:28;97660.04;;;13.13;60.67
70488;BME280;57976;48.174;16.370;2023-03-14T08:57:33;97653.87;;;13.18;60.56
70488;BME280;57976;48.174;16.370;2023-03-14T08:59:38;97648.28;;;13.24;60.32
70488;BME280;57976;48.174;16.370;2023-03-14T09:01:43;97645.27;;;13.29;60.16
70488;BME280;57976;48.174;16.370;2023-03-14T09:03:47;97652.08;;;13.33;60.38
70488;BME280;57976;48.174;16.370;2023-03-14T09:05:53;97654.94;;;13.36;60.12
70488;BME280;57976;48.174;16.370;2023-03-14T09:07:57;97646.33;;;13.38;59.97
70488;BME280;57976;48.174;16.370;2023-03-14T09:10:02;97646.77;;;13.39;59.87
70488;BME280;57976;48.174;16.370;2023-03-14T09:12:09;97642.81;;;13.41;59.62
70488;BME280;57976;48.174;16.370;2023-03-14T09:14:14;97638.01;;;13.41;59.49
70488;BME280;57976;48.174;16.370;2023-03-14T09:16:19;97642.08;;;13.42;59.39
70488;BME280;57976;48.174;16.370;2023-03-14T09:18:24;97639.11;;;13.41;59.33
70488;BME280;57976;48.174;16.370;2023-03-14T09:20:28;97646.91;;;13.38;59.26
70488;BME280;57976;48.174;16.370;2023-03-14T09:22:33;97650.28;;;13.36;59.45
70488;BME280;57976;48.174;16.370;2023-03-14T09:24:38;97658.46;;;13.36;59.38
70488;BME280;57976;48.174;16.370;2023-03-14T09:26:44;97656.96;;;13.36;59.49
70488;BME280;57976;48.174;16.370;2023-03-14T09:28:48;97656.50;;;13.40;59.54
70488;BME280;57976;48.174;16.370;2023-03-14T09:30:53;97660.50;;;13.45;59.47
70488;BME280;57976;48.174;16.370;2023-03-14T09:32:58;97660.51;;;13.48;59.43
70488;BME280;57976;48.174;16.370;2023-03-14T09:35:03;97664.06;;;13.51;59.27
70488;BME280;57976;48.174;16.370;2023-03-14T09:37:08;97664.91;;;13.52;59.25
70488;BME280;57976;48.174;16.370;2023-03-14T09:39:12;97665.45;;;13.52;59.23
70488;BME280;57976;48.174;16.370;2023-03-14T09:41:21;97661.45;;;13.52;59.22
70488;BME280;57976;48.174;16.370;2023-03-14T09:43:27;97659.13;;;13.50;59.10
70488;BME280;57976;48.174;16.370;2023-03-14T09:45:35;97658.15;;;13.47;58.97
70488;BME280;57976;48.174;16.370;2023-03-14T09:47:41;97663.69;;;13.44;59.07
70488;BME280;57976;48.174;16.370;2023-03-14T09:50:02;97661.27;;;13.42;59.20
70488;BME280;57976;48.174;16.370;2023-03-14T09:52:13;97654.27;;;13.40;59.20
70488;BME280;57976;48.174;16.370;2023-03-14T09:54:31;97654.05;;;13.39;59.08
70488;BME280;57976;48.174;16.370;2023-03-14T09:56:36;97657.89;;;13.40;59.25
70488;BME280;57976;48.174;16.370;2023-03-14T09:58:41;97658.29;;;13.44;59.13
70488;BME280;57976;48.174;16.370;2023-03-14T10:00:49;97665.55;;;13.49;59.13
70488;BME280;57976;48.174;16.370;2023-03-14T10:02:59;97665.89;;;13.53;59.29
70488;BME280;57976;48.174;16.370;2023-03-14T10:05:14;97666.02;;;13.59;58.99
70488;BME280;57976;48.174;16.370;2023-03-14T10:07:22;97655.08;;;13.63;58.88
70488;BME280;57976;48.174;16.370;2023-03-14T10:09:29;97651.83;;;13.68;59.00
70488;BME280;57976;48.174;16.370;2023-03-14T10:11:34;97652.27;;;13.76;58.88
70488;BME280;57976;48.174;16.370;2023-03-14T10:13:49;97661.03;;;13.80;58.53
70488;BME280;57976;48.174;16.370;2023-03-14T10:15:55;97662.00;;;13.81;58.51
70488;BME280;57976;48.174;16.370;2023-03-14T10:18:04;97658.03;;;13.82;58.53
70488;BME280;57976;48.174;16.370;2023-03-14T10:20:31;97650.08;;;13.86;58.36
70488;BME280;57976;48.174;16.370;2023-03-14T10:22:36;97652.92;;;13.95;58.30
70488;BME280;57976;48.174;16.370;2023-03-14T10:24:46;97656.33;;;14.02;58.25
70488;BME280;57976;48.174;16.370;2023-03-14T10:26:53;97663.05;;;14.09;58.05
70488;BME280;57976;48.174;16.370;2023-03-14T10:29:08;97661.12;;;14.11;58.02
70488;BME280;57976;48.174;16.370;2023-03-14T10:31:13;97654.39;;;14.16;57.90
70488;BME280;57976;48.174;16.370;2023-03-14T10:33:23;97662.27;;;14.20;57.92
70488;BME280;57976;48.174;16.370;2023-03-14T10:35:28;97662.81;;;14.23;57.73
70488;BME280;57976;48.174;16.370;2023-03-14T10:37:51;97662.98;;;14.28;57.78
70488;BME280;57976;48.174;16.370;2023-03-14T10:40:00;97659.52;;;14.29;57.66
70488;BME280;57976;48.174;16.370;2023-03-14T10:42:12;97657.23;;;14.32;57.52
70488;BME280;57976;48.174;16.370;2023-03-14T10:44:21;97655.15;;;14.33;57.59
70488;BME280;57976;48.174;16.370;2023-03-14T10:46:31;97661.11;;;14.35;57.38
70488;BME280;57976;48.174;16.370;2023-03-14T10:48:55;97671.82;;;14.37;58.20
70488;BME280;57976;48.174;16.370;2023-03-14T10:51:05;97671.82;;;14.34;58.95
70488;BME280;57976;48.174;16.370;2023-03-14T10:53:10;97667.29;;;14.28;59.54
70488;BME280;57976;48.174;16.370;2023-03-14T10:55:15;97668.63;;;14.18;59.55
70488;BME280;57976;48.174;16.370;2023-03-14T10:57:22;97668.24;;;14.10;59.17
70488;BME280;57976;48.174;16.370;2023-03-14T10:59:29;97667.04;;;14.01;58.98
70488;BME280;57976;48.174;16.370;2023-03-14T11:01:41;97661.61;;;13.95;58.69
70488;BME280;57976;48.174;16.370;2023-03-14T11:03:51;97665.92;;;13.88;58.33
70488;BME280;57976;48.174;16.370;2023-03-14T11:06:01;97657.02;;;13.84;57.86
70488;BME280;57976;48.174;16.370;2023-03-14T11:08:13;97649.60;;;13.77;58.10
70488;BME280;57976;48.174;16.370;2023-03-14T11:10:24;97660.15;;;13.74;58.20
70488;BME280;57976;48.174;16.370;2023-03-14T11:12:38;97660.93;;;13.70;57.95
70488;BME280;57976;48.174;16.370;2023-03-14T11:14:48;97669.36;;;13.65;57.74